aviador You're here:

KMKT Decoded Metar

MANKATO in MN, USA
Report Time2018-07-16 09:56:00
UTC Time2018-07-16 10:26:23
Flight Rules vfr VFR
Wind300° at 03 kt
W.Decomp.*RWY 33: 2.5 kt HW 1.7 kt LCW
RWY 22: 0.7 kt HW 2.9 kt RCW
W.Rank300° ranks 5
Current wind is below 300° avg. (10.9)
Visibility9999 m
Phenomena:N/A
Clouds:Few 120 Hf
Expected CloudBase > 400 ft AGL from Temp-Dew spread
CeilingNone
Temp17°C (ISA +4)
Dew Point16°C (94% RH)
QNH1018 hPa
Density Alt1,572 ft
Elevation1,020 ft
Report Wrong Elevation
Raw Report
KMKT 160956Z AUTO 30003KT 10SM FEW120 17/16 A3006 RMK AO2 SLP177
T01670156=

Extra information for KMKT:More info

Metar Taf Metar & Taf Last 4 Metars F.Rules Stats Wind Profile Meteogram Temp Stats Airport Information Weather charts Add Link Nearby VenuesMetar ALERT Operation Metar Decoded Social comments

AIRNAV info for KMKT